createdAt,value
2023-05-25T00:04:22.158Z,99497.41
2023-05-25T00:09:32.892Z,99505.88
2023-05-25T00:14:40.327Z,99500.03
2023-05-25T00:19:45.500Z,99494.19
2023-05-25T00:24:53.397Z,99503.78
2023-05-25T00:29:59.901Z,99503.25
2023-05-25T00:35:08.560Z,99498.19
2023-05-25T00:40:19.038Z,99493.41
2023-05-25T00:45:24.298Z,99495.81
2023-05-25T00:50:43.693Z,99490.72
2023-05-25T00:55:56.534Z,99495.25
2023-05-25T01:01:12.331Z,99487.28
2023-05-25T01:06:19.554Z,99491.50
2023-05-25T01:11:32.358Z,99492.06
2023-05-25T01:16:38.433Z,99498.38
2023-05-25T01:21:52.199Z,99501.06
2023-05-25T01:27:04.937Z,99505.81
2023-05-25T01:32:11.764Z,99498.91
2023-05-25T01:37:24.814Z,99494.94
2023-05-25T01:42:31.272Z,99511.34
2023-05-25T01:47:47.161Z,99512.13
2023-05-25T01:53:02.954Z,99501.00
2023-05-25T01:58:10.038Z,99491.47
2023-05-25T02:03:15.630Z,99491.44
2023-05-25T02:08:23.403Z,99497.81
2023-05-25T02:13:28.669Z,99502.13
2023-05-25T02:18:34.581Z,99504.75
2023-05-25T02:23:42.397Z,99512.44
2023-05-25T02:28:47.561Z,99523.34
2023-05-25T02:33:52.719Z,99514.91
2023-05-25T02:39:00.661Z,99522.53
2023-05-25T02:44:05.985Z,99518.06
2023-05-25T02:49:13.246Z,99523.63
2023-05-25T02:54:21.877Z,99525.41
2023-05-25T02:59:27.729Z,99512.72
2023-05-25T03:04:37.790Z,99534.09
2023-05-25T03:09:46.021Z,99536.34
2023-05-25T03:14:51.297Z,99548.38
2023-05-25T03:19:57.714Z,99542.63
2023-05-25T03:25:07.753Z,99548.44
2023-05-25T03:30:15.674Z,99552.66
2023-05-25T03:35:21.497Z,99545.31
2023-05-25T03:40:30.170Z,99560.75
2023-05-25T03:45:38.619Z,99572.41
2023-05-25T03:50:43.777Z,99557.66
2023-05-25T03:55:55.581Z,99565.63
2023-05-25T04:01:01.996Z,99578.56
2023-05-25T04:06:09.109Z,99588.97
2023-05-25T04:11:17.215Z,99591.34
2023-05-25T04:16:22.639Z,99597.25
2023-05-25T04:21:27.998Z,99596.16
2023-05-25T04:26:36.032Z,99592.56
2023-05-25T04:31:44.477Z,99594.19
2023-05-25T04:37:15.490Z,99584.06
2023-05-25T04:42:24.253Z,99574.50
2023-05-25T04:47:32.808Z,99577.81
2023-05-25T04:52:39.078Z,99593.81
2023-05-25T04:57:47.392Z,99586.00
2023-05-25T05:02:54.299Z,99595.63
2023-05-25T05:08:03.861Z,99565.56
2023-05-25T05:13:13.074Z,99572.47
2023-05-25T05:18:32.109Z,99570.19
2023-05-25T05:23:46.330Z,99573.97
2023-05-25T05:28:57.654Z,99565.28
2023-05-25T05:34:08.814Z,99563.88
2023-05-25T05:39:14.618Z,99574.25
2023-05-25T05:44:27.896Z,99576.38
2023-05-25T05:49:35.387Z,99568.50
2023-05-25T05:54:43.773Z,99557.34
2023-05-25T05:59:55.940Z,99572.19
2023-05-25T06:05:06.343Z,99566.69
2023-05-25T06:10:13.311Z,99572.94
2023-05-25T06:15:21.581Z,99575.78
2023-05-25T06:20:33.146Z,99578.38
2023-05-25T06:25:40.609Z,99572.50
2023-05-25T06:30:48.540Z,99574.22
2023-05-25T06:36:00.675Z,99568.41
2023-05-25T06:41:13.003Z,99571.66
2023-05-25T06:46:21.828Z,99578.53
2023-05-25T06:51:34.253Z,99583.03
2023-05-25T06:56:42.164Z,99584.53
2023-05-25T07:01:55.657Z,99595.22
2023-05-25T07:07:13.320Z,99581.47
2023-05-25T07:12:21.729Z,99586.56
2023-05-25T07:17:29.648Z,99586.25
2023-05-25T07:22:34.914Z,99589.81
2023-05-25T07:27:42.949Z,99589.56
2023-05-25T07:32:51.378Z,99576.66
2023-05-25T07:38:05.687Z,99583.41
2023-05-25T07:43:25.168Z,99576.03
2023-05-25T07:48:33.382Z,99571.31
2023-05-25T07:53:38.579Z,99588.16
2023-05-25T07:58:49.116Z,99584.16
2023-05-25T08:03:56.947Z,99592.94
2023-05-25T08:09:02.393Z,99605.59
2023-05-25T08:14:08.339Z,99600.41
2023-05-25T08:19:16.285Z,99600.66
2023-05-25T08:24:22.112Z,99605.81
2023-05-25T08:29:27.233Z,99616.47
2023-05-25T08:34:35.001Z,99606.81
2023-05-25T08:39:42.298Z,99606.81
2023-05-25T08:44:50.540Z,99608.97
2023-05-25T08:49:59.747Z,99610.97
2023-05-25T08:55:09.677Z,99609.78
2023-05-25T09:00:18.817Z,99612.66
2023-05-25T09:05:28.687Z,99610.66
2023-05-25T09:10:36.410Z,99613.47
2023-05-25T09:15:42.232Z,99615.31
2023-05-25T09:20:52.425Z,99624.69
2023-05-25T09:25:58.281Z,99611.16
2023-05-25T09:31:04.026Z,99606.59
2023-05-25T09:36:12.864Z,99625.94
2023-05-25T09:41:19.052Z,99614.97
2023-05-25T09:46:24.235Z,99628.06
2023-05-25T09:51:34.061Z,99622.97
2023-05-25T09:56:40.480Z,99627.06
2023-05-25T10:01:48.320Z,99652.84
2023-05-25T10:06:57.364Z,99631.75
2023-05-25T10:12:03.723Z,99637.97
2023-05-25T10:17:10.216Z,99635.91
2023-05-25T10:22:24.595Z,99633.19
2023-05-25T10:27:44.658Z,99618.31
2023-05-25T10:32:52.929Z,99626.13
2023-05-25T10:38:05.259Z,99614.91
2023-05-25T10:43:11.554Z,99630.06
2023-05-25T10:48:17.106Z,99622.75
2023-05-25T10:53:26.330Z,99609.44
2023-05-25T10:58:34.494Z,99621.50
2023-05-25T11:04:00.338Z,99613.16
2023-05-25T11:09:08.537Z,99599.72
2023-05-25T11:14:27.168Z,99592.13
2023-05-25T11:19:42.699Z,99592.63
2023-05-25T11:24:56.869Z,99588.22
2023-05-25T11:30:02.927Z,99584.53
2023-05-25T11:35:11.267Z,99584.91
2023-05-25T11:40:19.011Z,99585.59
2023-05-25T11:45:26.691Z,99584.41
2023-05-25T11:50:32.375Z,99571.94
2023-05-25T11:55:43.974Z,99571.22
2023-05-25T12:00:53.127Z,99572.66
2023-05-25T12:05:58.430Z,99574.03
2023-05-25T12:11:06.378Z,99572.47
2023-05-25T12:16:11.795Z,99569.50
2023-05-25T12:21:20.099Z,99571.75
2023-05-25T12:26:34.288Z,99554.09
2023-05-25T12:31:41.533Z,99542.16
2023-05-25T12:36:49.165Z,99545.25
2023-05-25T12:41:57.614Z,99543.41
2023-05-25T12:47:14.689Z,99536.69
2023-05-25T12:52:48.364Z,99528.13
2023-05-25T12:57:56.382Z,99533.59
2023-05-25T13:03:02.444Z,99523.31
2023-05-25T13:08:10.705Z,99520.25
2023-05-25T13:13:18.889Z,99515.34
2023-05-25T13:18:25.708Z,99522.50
2023-05-25T13:23:35.505Z,99520.16
2023-05-25T13:28:44.082Z,99521.66
2023-05-25T13:33:52.474Z,99521.19
2023-05-25T13:38:59.376Z,99519.91
2023-05-25T13:44:07.303Z,99520.88
2023-05-25T13:49:14.024Z,99502.22
2023-05-25T13:54:19.286Z,99494.94
2023-05-25T13:59:31.753Z,99505.00
2023-05-25T14:04:41.949Z,99494.94
2023-05-25T14:09:47.078Z,99485.34
2023-05-25T14:14:55.053Z,99494.28
2023-05-25T14:20:02.933Z,99488.81
2023-05-25T14:25:09.696Z,99490.13
2023-05-25T14:30:17.773Z,99489.28
2023-05-25T14:35:25.077Z,99480.41
2023-05-25T14:40:30.512Z,99476.25
2023-05-25T14:45:38.878Z,99473.78
2023-05-25T14:50:45.386Z,99473.53
2023-05-25T14:55:50.556Z,99473.41
2023-05-25T15:00:58.321Z,99476.06
2023-05-25T15:06:03.510Z,99479.72
2023-05-25T15:11:08.654Z,99481.47
2023-05-25T15:16:17.533Z,99475.22
2023-05-25T15:21:23.483Z,99470.72
2023-05-25T15:26:31.026Z,99475.59
2023-05-25T15:31:38.896Z,99471.63
2023-05-25T15:36:47.108Z,99476.69
2023-05-25T15:41:52.233Z,99470.13
2023-05-25T15:47:00.412Z,99475.72
2023-05-25T15:52:06.911Z,99461.56
2023-05-25T15:57:13.313Z,99457.44
2023-05-25T16:02:21.234Z,99461.00
2023-05-25T16:07:26.430Z,99451.94
2023-05-25T16:12:40.012Z,99443.78
2023-05-25T16:17:47.845Z,99431.81
2023-05-25T16:22:53.084Z,99440.97
2023-05-25T16:27:58.536Z,99439.28
2023-05-25T16:33:07.963Z,99432.91
2023-05-25T16:38:14.622Z,99435.69
2023-05-25T16:43:19.834Z,99439.50
2023-05-25T16:48:28.862Z,99436.31
2023-05-25T16:53:34.094Z,99440.91
2023-05-25T16:58:39.301Z,99428.78
2023-05-25T17:03:47.186Z,99433.09
2023-05-25T17:08:52.799Z,99433.13
2023-05-25T17:13:58.159Z,99435.47
2023-05-25T17:19:07.344Z,99430.75
2023-05-25T17:24:12.563Z,99438.63
2023-05-25T17:29:17.869Z,99434.75
2023-05-25T17:34:25.905Z,99437.03
2023-05-25T17:39:31.436Z,99438.69
2023-05-25T17:44:40.278Z,99439.31
2023-05-25T17:49:52.959Z,99434.78
2023-05-25T17:54:58.049Z,99441.22
2023-05-25T18:00:03.958Z,99450.94
2023-05-25T18:05:20.060Z,99454.97
2023-05-25T18:10:25.109Z,99444.63
2023-05-25T18:15:30.561Z,99454.25
2023-05-25T18:20:43.975Z,99451.56
2023-05-25T18:25:49.061Z,99462.03
2023-05-25T18:30:55.327Z,99467.53
2023-05-25T18:36:03.036Z,99466.31
2023-05-25T18:41:12.257Z,99477.41
2023-05-25T18:46:17.406Z,99475.25
2023-05-25T18:51:26.047Z,99478.91
2023-05-25T18:56:31.280Z,99472.38
2023-05-25T19:01:37.386Z,99487.28
2023-05-25T19:06:45.261Z,99487.13
2023-05-25T19:11:50.367Z,99503.19
2023-05-25T19:16:55.729Z,99497.28
2023-05-25T19:22:03.503Z,99502.22
2023-05-25T19:27:08.704Z,99524.09
2023-05-25T19:32:14.975Z,99511.66
2023-05-25T19:37:23.572Z,99525.53
2023-05-25T19:42:28.739Z,99526.72
2023-05-25T19:47:34.009Z,99532.81
2023-05-25T19:52:41.896Z,99540.50
2023-05-25T19:57:47.760Z,99543.00
2023-05-25T20:02:53.924Z,99539.03
2023-05-25T20:08:02.558Z,99538.09
2023-05-25T20:13:11.167Z,99548.50
2023-05-25T20:18:16.344Z,99550.13
2023-05-25T20:23:26.463Z,99547.97
2023-05-25T20:28:34.174Z,99556.53
2023-05-25T20:33:39.395Z,99556.53
2023-05-25T20:38:49.847Z,99566.06
2023-05-25T20:43:54.873Z,99563.78
2023-05-25T20:48:59.940Z,99568.13
2023-05-25T20:54:07.982Z,99579.84
2023-05-25T20:59:13.940Z,99572.09
2023-05-25T21:04:19.439Z,99573.34
2023-05-25T21:09:29.640Z,99588.50
2023-05-25T21:14:34.846Z,99584.06
2023-05-25T21:19:39.953Z,99587.34
2023-05-25T21:24:51.153Z,99598.75
2023-05-25T21:29:56.638Z,99597.97
2023-05-25T21:35:02.005Z,99597.16
2023-05-25T21:40:12.996Z,99605.22
2023-05-25T21:45:18.188Z,99612.59
2023-05-25T21:50:23.329Z,99615.59
2023-05-25T21:55:31.028Z,99620.13
2023-05-25T22:00:38.110Z,99614.88
2023-05-25T22:05:44.431Z,99609.53
2023-05-25T22:10:53.415Z,99605.13
2023-05-25T22:15:58.544Z,99611.88
2023-05-25T22:21:03.707Z,99624.25
2023-05-25T22:26:11.918Z,99619.81
2023-05-25T22:31:17.484Z,99626.22
2023-05-25T22:36:22.664Z,99616.94
2023-05-25T22:41:32.007Z,99627.84
2023-05-25T22:46:40.365Z,99632.00
2023-05-25T22:51:45.714Z,99638.91
2023-05-25T22:56:53.471Z,99639.00
2023-05-25T23:02:02.850Z,99643.50
2023-05-25T23:07:08.280Z,99638.44
2023-05-25T23:12:15.956Z,99636.22
2023-05-25T23:17:21.152Z,99632.13
2023-05-25T23:22:26.281Z,99633.13
2023-05-25T23:27:34.839Z,99626.31
2023-05-25T23:32:39.923Z,99636.50
2023-05-25T23:37:45.013Z,99644.84
2023-05-25T23:42:53.966Z,99629.97
2023-05-25T23:48:00.239Z,99636.00
2023-05-25T23:53:08.161Z,99636.31
2023-05-25T23:58:15.884Z,99636.88
